Time;durP1;ratioP1;P1;durP2;ratioP2;P2;SDS_P1;SDS_P2;PMS_P1;PMS_P2;Temp;Humidity;BMP_temperature;BMP_pressure;BME280_temperature;BME280_humidity;BME280_pressure;Samples;Min_cycle;Max_cycle;Signal;HPM_P1;HPM_P2
2022/11/05 00:16:54;;;;;;;9.38;3.95;;;;;;;13.68;100.00;95936.50;5099387;28;20066;-47
2022/11/05 00:19:24;;;;;;;5.32;3.88;;;;;;;14.23;100.00;95941.50;5097821;28;20579;-45
2022/11/05 00:27:24;;;;;;;5.07;3.42;;;;;;;13.59;100.00;95958.72;5098786;28;20055;-44
2022/11/05 00:29:52;;;;;;;5.10;3.78;;;;;;;14.30;100.00;95951.38;5100142;28;20129;-46
2022/11/05 00:32:20;;;;;;;5.80;3.70;;;;;;;15.02;100.00;95953.47;5096006;28;20090;-43
2022/11/05 00:34:50;;;;;;;5.93;3.95;;;;;;;15.42;100.00;95958.25;5097483;28;20071;-45
2022/11/05 00:37:18;;;;;;;8.23;4.30;;;;;;;15.40;100.00;95962.94;5102865;28;20125;-43
2022/11/05 00:39:47;;;;;;;8.30;3.80;;;;;;;15.28;100.00;95961.78;5101396;28;20086;-45
2022/11/05 00:45:01;;;;;;;5.75;3.70;;;;;;;15.51;100.00;95961.63;5100570;28;20553;-43
2022/11/05 00:50:18;;;;;;;5.90;3.50;;;;;;;15.04;100.00;95972.72;5097044;28;20079;-44
2022/11/05 00:52:56;;;;;;;4.57;3.70;;;;;;;15.23;100.00;95979.28;5096068;28;20061;-46
2022/11/05 00:55:33;;;;;;;4.40;3.40;;;;;;;14.63;100.00;95983.78;5094998;28;20082;-43
2022/11/05 00:58:03;;;;;;;5.30;3.40;;;;;;;14.15;100.00;95997.25;5095514;28;20442;-45
2022/11/05 01:00:32;;;;;;;5.35;3.70;;;;;;;15.38;100.00;95974.75;5094293;28;20691;-42
2022/11/05 01:03:02;;;;;;;6.10;3.67;;;;;;;15.76;100.00;95977.25;5093483;28;20072;-44
2022/11/05 01:05:33;;;;;;;5.67;3.63;;;;;;;15.71;100.00;95967.19;5097195;28;20094;-46
2022/11/05 01:08:01;;;;;;;5.45;3.90;;;;;;;15.71;100.00;95972.50;5079402;28;20074;-45
2022/11/05 01:10:30;;;;;;;6.90;3.47;;;;;;;15.48;100.00;95971.78;5094427;28;20071;-44
2022/11/05 01:12:59;;;;;;;4.28;3.30;;;;;;;15.10;100.00;95972.78;5097460;28;20698;-41
2022/11/05 01:15:27;;;;;;;4.90;3.47;;;;;;;15.54;100.00;95976.38;5098853;28;20087;-46
2022/11/05 01:17:56;;;;;;;5.55;3.50;;;;;;;15.37;100.00;95979.25;5097427;28;20526;-46
2022/11/05 01:20:24;;;;;;;6.82;3.78;;;;;;;15.62;100.00;95978.91;5096448;28;20074;-44
2022/11/05 01:22:54;;;;;;;5.68;3.53;;;;;;;15.38;100.00;95983.56;5095969;28;20107;-45
2022/11/05 01:25:22;;;;;;;4.13;3.23;;;;;;;14.52;100.00;95994.81;5094801;28;20074;-49
2022/11/05 01:27:50;;;;;;;5.55;3.38;;;;;;;15.36;100.00;95988.22;5094247;28;20086;-46
2022/11/05 01:30:19;;;;;;;5.20;3.28;;;;;;;15.48;100.00;95993.06;5095689;28;20090;-45
2022/11/05 01:32:47;;;;;;;7.45;3.45;;;;;;;15.35;100.00;95991.09;5095557;28;20076;-45
2022/11/05 01:35:17;;;;;;;7.15;3.80;;;;;;;15.01;100.00;95999.63;5095566;28;20110;-48
2022/11/05 01:37:46;;;;;;;5.87;3.70;;;;;;;14.68;100.00;96000.78;5095715;28;20076;-44
2022/11/05 01:40:17;;;;;;;5.90;3.55;;;;;;;14.31;100.00;96000.78;5100602;28;20079;-46
2022/11/05 01:42:46;;;;;;;5.80;3.40;;;;;;;13.70;100.00;96006.03;5097243;28;20067;-42
2022/11/05 01:45:17;;;;;;;5.32;3.25;;;;;;;13.45;100.00;96014.09;5100133;28;20433;-47
2022/11/05 01:47:53;;;;;;;6.05;3.65;;;;;;;13.68;100.00;96008.84;5102556;28;20079;-47
2022/11/05 01:50:29;;;;;;;7.05;3.92;;;;;;;13.55;100.00;96011.25;5095674;28;20446;-47
2022/11/05 01:53:03;;;;;;;5.00;3.53;;;;;;;13.44;100.00;96011.63;5096189;28;20079;-44
2022/11/05 01:55:35;;;;;;;4.90;3.55;;;;;;;13.74;100.00;96010.81;5108671;28;20086;-44
2022/11/05 01:58:06;;;;;;;6.07;3.63;;;;;;;13.53;100.00;96011.44;5102853;28;20078;-46
2022/11/05 02:00:35;;;;;;;4.90;3.80;;;;;;;13.15;100.00;96002.47;5100229;28;20447;-47
2022/11/05 02:03:03;;;;;;;6.05;3.92;;;;;;;13.30;100.00;96007.91;5098758;28;20075;-45
2022/11/05 02:05:33;;;;;;;4.90;3.42;;;;;;;13.28;100.00;96009.88;5103485;28;22200;-50
2022/11/05 02:08:02;;;;;;;6.40;3.65;;;;;;;13.09;100.00;96004.97;5101903;28;20101;-48
2022/11/05 02:10:30;;;;;;;7.47;4.00;;;;;;;13.14;100.00;96007.94;5107000;28;20082;-45
2022/11/05 02:13:02;;;;;;;5.85;3.70;;;;;;;13.81;100.00;96007.47;5102720;28;20079;-49
2022/11/05 02:15:38;;;;;;;7.22;4.00;;;;;;;14.46;100.00;96005.13;5104169;28;20079;-48
2022/11/05 02:18:15;;;;;;;6.35;4.07;;;;;;;14.72;100.00;96004.72;5104418;28;20081;-45
2022/11/05 02:20:50;;;;;;;8.00;4.32;;;;;;;14.10;100.00;96010.22;5098683;28;20693;-42
2022/11/05 02:23:37;;;;;;;7.88;3.97;;;;;;;13.49;100.00;96011.97;5100474;28;20063;-43
2022/11/05 02:26:50;;;;;;;6.22;3.75;;;;;;;14.31;100.00;96006.91;5099339;28;20086;-44
2022/11/05 02:30:06;;;;;;;4.30;3.25;;;;;;;14.73;100.00;96010.88;5105678;28;20067;-44
2022/11/05 02:32:55;;;;;;;5.97;3.78;;;;;;;14.95;100.00;96014.44;5100814;28;20078;-43
2022/11/05 02:35:35;;;;;;;5.68;3.42;;;;;;;15.09;100.00;96026.91;5103623;28;20086;-45
2022/11/05 02:38:07;;;;;;;4.90;3.58;;;;;;;14.77;100.00;96027.25;5102758;28;20075;-46
2022/11/05 02:40:44;;;;;;;5.70;3.88;;;;;;;14.78;100.00;96020.94;5100513;28;20075;-42
2022/11/05 02:43:16;;;;;;;5.22;3.40;;;;;;;14.49;100.00;96018.03;5103920;28;21747;-44
2022/11/05 02:45:49;;;;;;;5.60;3.90;;;;;;;14.21;100.00;96024.88;5104331;28;20467;-47
2022/11/05 02:48:23;;;;;;;5.45;3.78;;;;;;;13.33;100.00;96039.34;5105144;28;20075;-42
2022/11/05 02:50:58;;;;;;;4.82;3.60;;;;;;;14.59;100.00;96022.28;5106387;28;20067;-41
2022/11/05 02:53:33;;;;;;;5.00;3.40;;;;;;;14.88;100.00;96022.31;5100426;28;20090;-43
2022/11/05 02:56:04;;;;;;;4.72;3.92;;;;;;;15.09;100.00;96026.06;5099279;28;20075;-47
2022/11/05 02:58:34;;;;;;;9.23;3.92;;;;;;;15.25;100.00;96025.91;5102681;28;20079;-46
2022/11/05 03:01:05;;;;;;;5.40;3.83;;;;;;;14.72;100.00;96030.44;5100590;28;20079;-42
2022/11/05 03:03:37;;;;;;;6.78;3.97;;;;;;;15.22;100.00;96025.44;5099534;28;20080;-45
2022/11/05 03:06:29;;;;;;;7.22;3.83;;;;;;;15.52;100.00;96029.72;5101462;28;20085;-50
2022/11/05 03:09:10;;;;;;;4.85;3.53;;;;;;;15.61;100.00;96033.06;5099136;28;20071;-43
2022/11/05 03:11:47;;;;;;;5.05;3.38;;;;;;;15.38;100.00;96031.38;5097689;28;20087;-43
2022/11/05 03:14:22;;;;;;;5.57;3.67;;;;;;;15.62;100.00;96035.56;5099087;28;20110;-45
2022/11/05 03:16:55;;;;;;;4.72;3.33;;;;;;;15.82;100.00;96043.78;5100442;28;20079;-46
2022/11/05 03:19:30;;;;;;;5.32;3.80;;;;;;;15.63;100.00;96047.03;5100845;28;20636;-43
2022/11/05 03:22:02;;;;;;;5.47;3.40;;;;;;;15.52;100.00;96053.63;5097669;28;20645;-41
2022/11/05 03:24:33;;;;;;;5.68;3.22;;;;;;;15.97;100.00;96059.72;5099899;28;20075;-48
2022/11/05 03:27:02;;;;;;;;;;;;;;;16.00;100.00;96067.31;5097956;28;20091;-47
2022/11/05 03:29:35;;;;;;;4.20;3.28;;;;;;;16.16;100.00;96065.41;5101796;28;19951;-42
2022/11/05 03:32:05;;;;;;;6.72;3.50;;;;;;;16.22;100.00;96073.47;5098211;28;20156;-44
2022/11/05 03:34:37;;;;;;;4.32;3.13;;;;;;;16.19;100.00;96079.16;5098360;28;20071;-49
2022/11/05 03:37:06;;;;;;;4.47;3.50;;;;;;;15.87;100.00;96083.13;5099471;28;20083;-53
2022/11/05 03:39:38;;;;;;;5.32;3.40;;;;;;;15.97;100.00;96088.16;5095140;28;20090;-48
2022/11/05 03:42:09;;;;;;;4.70;3.05;;;;;;;16.00;100.00;96098.38;5099559;28;20059;-47
2022/11/05 03:44:42;;;;;;;6.05;3.75;;;;;;;15.84;100.00;96105.59;5100526;28;20583;-47
2022/11/05 03:47:13;;;;;;;5.25;3.15;;;;;;;15.71;100.00;96116.03;5098244;28;20079;-49
2022/11/05 03:49:51;;;;;;;7.57;3.70;;;;;;;16.04;100.00;96110.31;5100755;28;20082;-49
2022/11/05 03:52:21;;;;;;;4.70;3.50;;;;;;;15.97;100.00;96114.75;5093982;28;20087;-42
2022/11/05 03:54:50;;;;;;;6.20;3.50;;;;;;;15.75;100.00;96119.97;5099685;28;20079;-47
2022/11/05 03:57:21;;;;;;;4.72;3.47;;;;;;;15.51;100.00;96110.44;5100070;28;20071;-46
2022/11/05 03:59:50;;;;;;;4.93;3.78;;;;;;;15.46;100.00;96119.97;5100645;28;20082;-45
2022/11/05 04:02:20;;;;;;;5.38;3.50;;;;;;;15.43;100.00;96118.50;5100756;28;20457;-49
2022/11/05 04:04:50;;;;;;;5.28;3.45;;;;;;;15.20;100.00;96118.56;5099129;28;20466;-43
2022/11/05 04:18:37;;;;;;;8.55;3.88;;;;;;;15.15;100.00;96127.09;5017185;28;20072;-42
2022/11/05 04:24:09;;;;;;;5.63;3.63;;;;;;;15.77;100.00;96130.44;5099001;28;20067;-52
2022/11/05 04:26:38;;;;;;;5.47;3.78;;;;;;;14.55;100.00;96151.81;5098446;28;20063;-41
2022/11/05 04:31:53;;;;;;;7.30;3.80;;;;;;;14.86;100.00;96130.50;5096446;28;20086;-43
2022/11/05 04:34:22;;;;;;;5.22;3.70;;;;;;;14.57;100.00;96133.09;5091883;28;20471;-53
2022/11/05 04:36:52;;;;;;;5.60;3.88;;;;;;;14.89;100.00;96130.16;5096487;28;20078;-50
2022/11/05 04:39:20;;;;;;;;;;;;;;;14.13;100.00;96138.97;5099192;28;20090;-44
2022/11/05 04:41:49;;;;;;;5.93;4.10;;;;;;;14.38;100.00;96142.28;5096610;28;19971;-48
2022/11/05 04:44:17;;;;;;;5.47;3.08;;;;;;;14.67;100.00;96141.63;5095832;28;20082;-48
2022/11/05 04:46:45;;;;;;;4.70;3.60;;;;;;;14.94;100.00;96132.28;5094240;28;20083;-47
2022/11/05 04:49:14;;;;;;;4.32;3.30;;;;;;;14.94;100.00;96140.25;5097252;28;20067;-46
2022/11/05 04:51:42;;;;;;;5.18;3.80;;;;;;;15.48;100.00;96137.38;5099143;28;20447;-45
2022/11/05 04:54:12;;;;;;;5.47;3.92;;;;;;;14.15;100.00;96156.38;5102763;28;20450;-42
2022/11/05 04:56:40;;;;;;;7.68;4.18;;;;;;;14.82;100.00;96158.41;5101995;28;20094;-42
2022/11/05 04:59:09;;;;;;;7.05;3.95;;;;;;;14.80;100.00;96152.47;5096432;28;20082;-44
2022/11/05 05:01:37;;;;;;;5.60;3.72;;;;;;;15.11;100.00;96152.38;5097677;28;20721;-43
2022/11/05 05:04:06;;;;;;;5.57;3.75;;;;;;;14.41;100.00;96158.69;5101537;28;20055;-52
2022/11/05 05:06:35;;;;;;;7.57;3.95;;;;;;;14.79;100.00;96157.94;5100892;28;20075;-42
2022/11/05 05:09:03;;;;;;;8.80;4.47;;;;;;;15.57;100.00;96149.56;5102221;28;20673;-44
2022/11/05 05:11:33;;;;;;;6.50;4.20;;;;;;;14.91;100.00;96162.66;5090517;28;20561;-42
2022/11/05 05:14:01;;;;;;;5.67;4.00;;;;;;;14.42;100.00;96162.19;5102205;28;20067;-41
2022/11/05 05:16:30;;;;;;;6.47;4.28;;;;;;;14.85;100.00;96167.88;5097412;28;20098;-44
2022/11/05 05:18:58;;;;;;;5.68;3.72;;;;;;;15.00;100.00;96171.38;5100870;28;20047;-46
2022/11/05 05:21:37;;;;;;;5.93;4.43;;;;;;;15.20;100.00;96169.88;5097243;28;20113;-42
2022/11/05 05:24:08;;;;;;;6.65;4.45;;;;;;;15.73;100.00;96161.06;5095193;28;20067;-42
2022/11/05 05:26:38;;;;;;;;;;;;;;;15.64;100.00;96163.78;5097826;28;20083;-42
2022/11/05 05:29:06;;;;;;;7.72;4.55;;;;;;;14.96;100.00;96176.22;5101502;28;19955;-47
2022/11/05 05:31:35;;;;;;;7.43;4.57;;;;;;;15.76;100.00;96168.66;5098403;28;20082;-43
2022/11/05 05:34:03;;;;;;;7.40;5.05;;;;;;;15.44;100.00;96171.47;5100948;28;20075;-41
2022/11/05 05:36:32;;;;;;;7.80;4.70;;;;;;;15.71;100.00;96168.41;5089872;28;20071;-44
2022/11/05 05:39:01;;;;;;;6.72;4.57;;;;;;;16.12;100.00;96172.19;5090262;28;20079;-47
2022/11/05 05:41:29;;;;;;;8.80;4.93;;;;;;;15.98;100.00;96175.72;5100710;28;20079;-44
2022/11/05 05:43:59;;;;;;;8.75;4.90;;;;;;;15.42;100.00;96181.47;5091294;28;20135;-46
2022/11/05 05:46:27;;;;;;;7.73;5.43;;;;;;;15.44;100.00;96179.44;5099909;28;20067;-44
2022/11/05 05:48:55;;;;;;;9.10;5.07;;;;;;;15.77;100.00;96170.31;5096936;28;20512;-42
2022/11/05 05:51:24;;;;;;;6.60;5.00;;;;;;;15.99;100.00;96174.69;5094727;28;20083;-51
2022/11/05 05:53:53;;;;;;;9.65;5.50;;;;;;;15.28;100.00;96195.56;5097454;28;20067;-45
2022/11/05 05:56:22;;;;;;;7.93;5.38;;;;;;;15.08;100.00;96187.25;5103268;28;20082;-41
2022/11/05 05:58:51;;;;;;;7.15;5.13;;;;;;;15.34;100.00;96189.50;5103688;28;20082;-44
2022/11/05 06:01:21;;;;;;;9.18;5.28;;;;;;;15.52;100.00;96189.16;5095991;28;20623;-41
2022/11/05 06:03:49;;;;;;;9.27;5.45;;;;;;;15.92;100.00;96192.41;5098587;28;20306;-44
2022/11/05 06:06:19;;;;;;;7.40;5.05;;;;;;;16.00;100.00;96188.81;5097491;28;20074;-42
2022/11/05 06:08:48;;;;;;;8.20;5.20;;;;;;;15.89;100.00;96192.75;5096477;28;20078;-45
2022/11/05 06:11:16;;;;;;;8.48;6.13;;;;;;;15.74;100.00;96191.97;5100350;28;20071;-43
2022/11/05 06:13:45;;;;;;;10.25;5.35;;;;;;;14.85;100.00;96203.19;5101131;28;20075;-43
2022/11/05 06:16:13;;;;;;;9.32;5.40;;;;;;;15.36;100.00;96208.75;5096293;28;20071;-41
2022/11/05 06:18:43;;;;;;;9.32;5.47;;;;;;;15.33;100.00;96218.91;5094344;28;20075;-43
2022/11/05 06:21:14;;;;;;;9.30;6.03;;;;;;;15.18;100.00;96219.72;5096063;28;20094;-41
2022/11/05 06:23:44;;;;;;;9.27;5.68;;;;;;;14.94;100.00;96228.69;5091555;28;20067;-51
2022/11/05 06:26:14;;;;;;;9.70;5.50;;;;;;;14.77;100.00;96229.81;5093209;28;20091;-45
2022/11/05 06:28:43;;;;;;;7.55;5.65;;;;;;;15.18;100.00;96240.13;5093177;28;20568;-47
2022/11/05 06:31:13;;;;;;;9.02;6.95;;;;;;;14.77;100.00;96240.44;5092820;28;20446;-45
2022/11/05 06:33:43;;;;;;;9.63;5.80;;;;;;;15.42;100.00;96244.41;5095045;28;20078;-47
2022/11/05 06:36:15;;;;;;;9.35;6.10;;;;;;;15.03;100.00;96241.91;5094180;28;20091;-48
2022/11/05 06:38:44;;;;;;;9.45;6.10;;;;;;;14.85;100.00;96242.19;5099833;28;20133;-46
2022/11/05 06:41:12;;;;;;;7.05;5.65;;;;;;;15.11;100.00;96244.50;5096805;28;20071;-48
2022/11/05 06:43:41;;;;;;;8.88;5.78;;;;;;;14.55;100.00;96250.00;5096654;28;20087;-42
2022/11/05 06:46:10;;;;;;;8.07;5.75;;;;;;;15.01;100.00;96251.88;5096729;28;20087;-45
2022/11/05 06:48:39;;;;;;;6.82;5.05;;;;;;;15.59;100.00;96248.56;5097925;28;20083;-44
2022/11/05 06:51:09;;;;;;;8.13;5.70;;;;;;;14.98;100.00;96260.22;5102609;28;20446;-43
2022/11/05 06:53:37;;;;;;;9.80;6.70;;;;;;;15.76;100.00;96257.25;5105519;28;20067;-42
2022/11/05 06:56:07;;;;;;;8.02;5.47;;;;;;;16.28;100.00;96261.63;5102387;28;20082;-43
2022/11/05 06:58:36;;;;;;;7.87;5.50;;;;;;;16.12;100.00;96270.63;5102416;28;20083;-43
2022/11/05 07:01:06;;;;;;;9.57;6.25;;;;;;;16.07;100.00;96266.84;5100754;28;20441;-42
2022/11/05 07:03:35;;;;;;;9.05;6.50;;;;;;;15.95;100.00;96271.81;5102029;28;20071;-45
2022/11/05 07:06:05;;;;;;;8.23;6.72;;;;;;;15.47;100.00;96281.06;5100622;28;20078;-43
2022/11/05 07:08:35;;;;;;;9.20;6.20;;;;;;;16.06;100.00;96286.50;5101549;28;20084;-42
2022/11/05 07:11:04;;;;;;;9.95;6.18;;;;;;;16.58;100.00;96283.69;5103516;28;20079;-42
2022/11/05 07:13:33;;;;;;;7.40;5.70;;;;;;;15.65;100.00;96298.31;5101538;28;20513;-43
2022/11/05 07:16:19;;;;;;;9.45;5.82;;;;;;;16.17;100.00;96295.84;5103044;28;20036;-42
2022/11/05 07:18:47;;;;;;;8.88;6.13;;;;;;;16.12;100.00;96293.75;5101093;28;20071;-45
2022/11/05 07:21:15;;;;;;;11.10;7.05;;;;;;;16.26;100.00;96294.75;5101744;28;20090;-46
2022/11/05 07:23:45;;;;;;;10.32;6.78;;;;;;;16.40;100.00;96301.91;5101326;28;21466;-46
2022/11/05 07:26:13;;;;;;;9.87;6.90;;;;;;;16.91;100.00;96299.28;5098601;28;20086;-41
2022/11/05 07:28:42;;;;;;;10.35;5.93;;;;;;;17.24;100.00;96298.78;5099631;28;20076;-44
2022/11/05 07:31:10;;;;;;;9.65;6.28;;;;;;;17.18;100.00;96308.38;5098076;28;20530;-43
2022/11/05 07:33:38;;;;;;;8.18;5.95;;;;;;;16.93;100.00;96315.91;5098630;28;20076;-44
2022/11/05 07:36:09;;;;;;;7.87;5.90;;;;;;;17.13;100.00;96305.44;5101635;28;20032;-45
2022/11/05 07:38:37;;;;;;;8.93;6.40;;;;;;;17.12;100.00;96313.63;5099673;28;20589;-44
2022/11/05 07:41:07;;;;;;;10.30;6.82;;;;;;;17.06;100.00;96318.69;5101582;28;20083;-44
2022/11/05 07:43:35;;;;;;;10.18;6.13;;;;;;;17.53;100.00;96321.84;5099026;28;20082;-41
2022/11/05 07:46:04;;;;;;;9.05;6.18;;;;;;;17.11;100.00;96322.66;5102372;28;20075;-43
2022/11/05 07:48:39;;;;;;;8.68;6.50;;;;;;;16.26;100.00;96324.84;5099928;28;20080;-42
2022/11/05 07:51:08;;;;;;;8.75;6.00;;;;;;;15.57;100.00;96334.81;5104137;28;20091;-48
2022/11/05 07:53:36;;;;;;;8.43;5.80;;;;;;;17.22;100.00;96325.63;5096105;28;20080;-42
2022/11/05 07:56:13;;;;;;;9.95;5.95;;;;;;;16.66;100.00;96336.03;5105363;28;20079;-44
2022/11/05 07:58:42;;;;;;;8.02;5.20;;;;;;;16.08;100.00;96335.03;5098967;28;20075;-42
2022/11/05 08:01:10;;;;;;;6.38;5.05;;;;;;;16.58;100.00;96342.25;5098196;28;20063;-46
2022/11/05 08:03:38;;;;;;;7.22;4.93;;;;;;;16.29;100.00;96327.16;5101703;28;20402;-44
2022/11/05 08:06:24;;;;;;;7.97;5.57;;;;;;;16.63;100.00;96336.41;5083851;28;20063;-46
2022/11/05 08:08:53;;;;;;;6.88;4.63;;;;;;;16.18;100.00;96346.22;5099388;28;20230;-46
2022/11/05 08:11:22;;;;;;;6.45;4.68;;;;;;;15.74;100.00;96344.31;5103201;28;20079;-46
2022/11/05 08:13:51;;;;;;;7.40;5.30;;;;;;;15.72;100.00;96348.97;5098831;28;20086;-44
2022/11/05 08:16:19;;;;;;;7.43;4.68;;;;;;;15.98;100.00;96339.78;5098929;28;20492;-47
2022/11/05 08:18:47;;;;;;;7.03;4.80;;;;;;;16.16;100.00;96342.91;5095119;28;20102;-47
2022/11/05 08:21:15;;;;;;;7.03;4.85;;;;;;;15.93;100.00;96344.81;5100263;28;20087;-47
2022/11/05 08:23:44;;;;;;;7.35;4.68;;;;;;;15.99;100.00;96346.75;5099929;28;20079;-43
2022/11/05 08:26:12;;;;;;;6.18;3.95;;;;;;;15.55;100.00;96348.25;5100090;28;20079;-44
2022/11/05 08:28:42;;;;;;;7.60;4.70;;;;;;;16.10;100.00;96349.81;5100644;28;20075;-43
2022/11/05 08:31:10;;;;;;;7.57;4.35;;;;;;;15.56;100.00;96359.75;5099690;28;20086;-44
2022/11/05 08:33:39;;;;;;;5.60;4.20;;;;;;;15.63;100.00;96355.34;5099623;28;20075;-42
2022/11/05 08:36:07;;;;;;;6.60;4.70;;;;;;;15.79;100.00;96355.22;5099803;28;20079;-43
2022/11/05 08:38:36;;;;;;;6.15;4.75;;;;;;;15.77;100.00;96351.13;5099231;28;20083;-42
2022/11/05 08:41:04;;;;;;;7.60;4.60;;;;;;;16.31;100.00;96346.44;5102375;28;20079;-45
2022/11/05 08:43:33;;;;;;;7.22;4.53;;;;;;;16.61;100.00;96343.75;5096735;28;20071;-50
2022/11/05 08:46:02;;;;;;;6.15;4.70;;;;;;;16.13;100.00;96357.41;5097524;28;20082;-48
2022/11/05 08:48:30;;;;;;;7.77;4.47;;;;;;;16.20;100.00;96352.19;5101912;28;20087;-43
2022/11/05 08:51:00;;;;;;;8.07;4.47;;;;;;;16.54;100.00;96348.97;5097878;28;20086;-44
2022/11/05 08:53:29;;;;;;;6.07;4.80;;;;;;;16.92;100.00;96343.53;5100858;28;20090;-43
2022/11/05 08:56:00;;;;;;;6.22;4.03;;;;;;;16.66;100.00;96343.22;5096903;28;20497;-44
2022/11/05 08:58:28;;;;;;;10.48;4.50;;;;;;;16.22;100.00;96355.50;5100071;28;20086;-46
2022/11/05 09:00:56;;;;;;;6.10;4.47;;;;;;;17.04;100.00;96351.88;5098952;28;20090;-44
2022/11/05 09:03:33;;;;;;;7.15;4.32;;;;;;;16.88;100.00;96354.75;5101210;28;20075;-46
2022/11/05 09:06:02;;;;;;;5.63;4.57;;;;;;;17.19;100.00;96350.00;5099687;28;20075;-45
2022/11/05 09:08:30;;;;;;;6.10;4.50;;;;;;;16.58;100.00;96344.94;5096253;28;20542;-48
2022/11/05 09:10:58;;;;;;;8.35;4.97;;;;;;;16.82;100.00;96353.66;5096818;28;20098;-47
2022/11/05 09:13:27;;;;;;;5.20;4.30;;;;;;;16.61;100.00;96360.53;5098528;28;20087;-45
2022/11/05 09:15:58;;;;;;;5.95;4.18;;;;;;;16.79;100.00;96354.88;5098769;28;20090;-42
2022/11/05 09:18:26;;;;;;;5.82;3.97;;;;;;;16.97;100.00;96358.97;5099567;28;20083;-43
2022/11/05 09:20:56;;;;;;;4.97;4.30;;;;;;;17.23;100.00;96361.09;5097570;28;20087;-43
2022/11/05 09:23:24;;;;;;;5.03;3.90;;;;;;;16.73;100.00;96365.41;5098895;28;20086;-48
2022/11/05 09:25:52;;;;;;;5.05;4.25;;;;;;;16.73;100.00;96363.56;5099108;28;20074;-44
2022/11/05 09:28:22;;;;;;;5.30;3.72;;;;;;;16.64;100.00;96363.84;5096269;28;21870;-41
2022/11/05 09:30:52;;;;;;;5.97;3.90;;;;;;;17.64;100.00;96363.16;5097468;28;20075;-44
2022/11/05 09:33:22;;;;;;;5.00;4.20;;;;;;;17.53;100.00;96375.97;5100688;28;20094;-48
2022/11/05 09:35:51;;;;;;;;;;;;;;;17.13;100.00;96371.25;5100034;28;20082;-45
2022/11/05 09:38:21;;;;;;;5.50;4.18;;;;;;;17.48;100.00;96374.88;5095277;28;19943;-42
2022/11/05 09:40:56;;;;;;;5.15;3.60;;;;;;;16.70;100.00;96379.09;5092530;28;20468;-48
2022/11/05 09:43:27;;;;;;;5.45;4.20;;;;;;;16.67;100.00;96377.63;5093658;28;20087;-45
2022/11/05 09:46:02;;;;;;;5.40;4.00;;;;;;;17.11;100.00;96379.44;5102041;28;20080;-50
2022/11/05 09:48:32;;;;;;;5.05;3.78;;;;;;;17.16;100.00;96378.84;5099595;28;20079;-47
2022/11/05 09:51:00;;;;;;;6.40;4.30;;;;;;;16.92;100.00;96391.47;5098871;28;20083;-42
2022/11/05 09:53:30;;;;;;;5.28;3.72;;;;;;;17.52;100.00;96382.34;5101508;28;20581;-43
2022/11/05 09:56:00;;;;;;;4.87;4.17;;;;;;;16.85;100.00;96391.41;5097668;28;20098;-44
2022/11/05 09:58:36;;;;;;;4.47;3.42;;;;;;;17.22;100.00;96389.59;5097836;28;20083;-44
2022/11/05 10:01:09;;;;;;;5.45;3.88;;;;;;;17.75;100.00;96386.63;5101996;28;20099;-43
2022/11/05 10:03:43;;;;;;;5.80;4.00;;;;;;;17.21;100.00;96390.63;5099798;28;20111;-44
2022/11/05 10:06:17;;;;;;;5.10;3.53;;;;;;;17.14;100.00;96391.56;5097204;28;20664;-43
2022/11/05 10:08:50;;;;;;;7.28;4.15;;;;;;;15.93;100.00;96409.47;5101451;28;20146;-43
2022/11/05 10:11:20;;;;;;;5.10;4.03;;;;;;;16.06;100.00;96411.53;5100904;28;20079;-47
2022/11/05 10:13:49;;;;;;;;;;;;;;;16.95;100.00;96404.44;5103700;28;20580;-45
2022/11/05 10:16:23;;;;;;;5.18;3.72;;;;;;;16.38;100.00;96413.06;5105088;28;19966;-46
2022/11/05 10:18:55;;;;;;;5.93;4.38;;;;;;;17.29;100.00;96405.66;5100433;28;20080;-44
2022/11/05 10:21:23;;;;;;;8.70;4.90;;;;;;;17.36;100.00;96406.56;5101156;28;20083;-45
2022/11/05 10:24:16;;;;;;;5.93;4.60;;;;;;;17.89;100.00;96403.63;5101493;28;20119;-43
2022/11/05 10:26:47;;;;;;;7.53;5.22;;;;;;;18.05;100.00;96403.34;5101455;28;20384;-47
2022/11/05 10:29:20;;;;;;;5.45;4.38;;;;;;;17.93;100.00;96412.91;5104264;28;20083;-48
2022/11/05 10:31:49;;;;;;;5.85;4.38;;;;;;;18.03;100.00;96408.03;5096616;28;20059;-43
2022/11/05 10:34:17;;;;;;;4.65;4.13;;;;;;;18.56;100.00;96405.78;5102627;28;20079;-43
2022/11/05 10:36:46;;;;;;;5.63;4.00;;;;;;;18.38;100.00;96405.47;5100331;28;20085;-47
2022/11/05 10:39:18;;;;;;;5.03;3.67;;;;;;;18.78;100.00;96403.88;5100732;28;20077;-48
2022/11/05 10:41:56;;;;;;;3.25;2.78;;;;;;;17.74;100.00;96407.16;5096341;28;20086;-44
2022/11/05 10:44:30;;;;;;;3.80;1.90;;;;;;;18.20;100.00;96411.25;5104291;28;20079;-45
2022/11/05 10:47:08;;;;;;;3.28;2.00;;;;;;;18.79;100.00;96412.72;5100789;28;20071;-47
2022/11/05 10:49:46;;;;;;;3.58;2.20;;;;;;;18.64;100.00;96412.81;5096020;28;20075;-48
2022/11/05 10:52:21;;;;;;;2.50;1.60;;;;;;;19.48;100.00;96409.94;5101527;28;20090;-43
2022/11/05 10:54:52;;;;;;;2.58;1.65;;;;;;;19.42;100.00;96418.75;5099172;28;20076;-46
2022/11/05 10:57:28;;;;;;;3.28;1.65;;;;;;;19.76;100.00;96419.69;5101706;28;20086;-42
2022/11/05 11:00:20;;;;;;;3.53;2.40;;;;;;;20.32;100.00;96414.78;5099593;28;20545;-42
2022/11/05 11:02:50;;;;;;;3.00;2.03;;;;;;;19.62;98.54;96419.63;5100088;28;20439;-42
2022/11/05 11:05:38;;;;;;;2.40;2.20;;;;;;;19.71;100.00;96414.13;5100658;28;20063;-43
2022/11/05 11:08:17;;;;;;;;;;;;;;;20.02;98.02;96410.88;5099769;28;20134;-51
2022/11/05 11:10:51;;;;;;;3.28;2.50;;;;;;;19.84;99.25;96416.81;5103700;28;20340;-45
2022/11/05 11:13:22;;;;;;;3.85;2.35;;;;;;;20.14;89.11;96419.94;5100685;28;20541;-46
2022/11/05 11:15:50;;;;;;;;;;;;;;;20.29;94.11;96417.06;5087068;28;20091;-43
2022/11/05 11:18:28;;;;;;;5.15;2.28;;;;;;;19.96;94.64;96411.69;5104017;28;20010;-48
2022/11/05 11:21:13;;;;;;;3.50;2.35;;;;;;;19.03;100.00;96414.91;5097232;28;20090;-46
2022/11/05 11:23:42;;;;;;;3.35;2.88;;;;;;;19.17;100.00;96421.16;5100887;28;20065;-47
2022/11/05 11:26:13;;;;;;;3.88;2.63;;;;;;;17.91;100.00;96428.28;5104200;28;20533;-46
2022/11/05 11:28:44;;;;;;;3.90;3.50;;;;;;;18.64;100.00;96435.00;5101686;28;20075;-44
2022/11/05 11:31:14;;;;;;;5.25;3.45;;;;;;;18.85;100.00;96428.78;5100929;28;20083;-42
2022/11/05 11:33:46;;;;;;;4.43;3.00;;;;;;;18.54;100.00;96434.53;5097715;28;20075;-46
2022/11/05 11:36:17;;;;;;;3.45;2.83;;;;;;;18.40;100.00;96433.59;5098213;28;20465;-42
2022/11/05 11:39:15;;;;;;;2.95;2.47;;;;;;;18.78;100.00;96433.25;5104330;28;20439;-47
2022/11/05 11:41:50;;;;;;;3.60;2.72;;;;;;;18.50;100.00;96436.75;5101403;28;20557;-43
2022/11/05 11:44:23;;;;;;;4.55;3.03;;;;;;;19.10;100.00;96433.66;5100180;28;20094;-46
2022/11/05 11:46:54;;;;;;;4.25;2.70;;;;;;;19.10;100.00;96437.16;5097592;28;20544;-41
2022/11/05 11:49:31;;;;;;;;;;;;;;;19.57;100.00;96431.97;5098693;28;20545;-43
2022/11/05 11:52:01;;;;;;;4.00;2.95;;;;;;;20.28;98.62;96426.94;5098036;28;19963;-44
2022/11/05 11:54:31;;;;;;;5.63;3.20;;;;;;;19.66;100.00;96433.47;5097621;28;20072;-41
2022/11/05 11:57:00;;;;;;;4.47;3.20;;;;;;;19.55;100.00;96428.69;5098538;28;20526;-47
2022/11/05 11:59:30;;;;;;;4.47;3.35;;;;;;;18.77;100.00;96428.94;5102340;28;20083;-46
2022/11/05 12:02:33;;;;;;;4.25;3.10;;;;;;;18.79;100.00;96426.91;5098997;28;20083;-47
2022/11/05 12:05:12;;;;;;;5.93;3.22;;;;;;;18.52;100.00;96433.09;5101581;28;22183;-44
2022/11/05 12:07:50;;;;;;;4.53;3.20;;;;;;;18.76;100.00;96437.19;5100725;28;20094;-46
2022/11/05 12:10:28;;;;;;;4.40;3.50;;;;;;;18.91;100.00;96430.66;5100245;28;20087;-44
2022/11/05 12:13:18;;;;;;;4.45;3.50;;;;;;;18.75;100.00;96441.66;5096712;28;20079;-47
2022/11/05 12:15:49;;;;;;;4.00;3.45;;;;;;;18.64;100.00;96439.53;5100848;28;20083;-46
2022/11/05 12:18:24;;;;;;;4.55;3.28;;;;;;;18.40;100.00;96433.59;5094347;28;20086;-47
2022/11/05 12:21:05;;;;;;;4.90;3.65;;;;;;;18.29;100.00;96439.47;5098780;28;20102;-42
2022/11/05 12:23:57;;;;;;;6.25;3.20;;;;;;;18.15;100.00;96441.22;5100781;28;20094;-43
2022/11/05 12:26:34;;;;;;;3.67;3.20;;;;;;;18.16;100.00;96442.03;5101423;28;20082;-45
2022/11/05 12:29:20;;;;;;;5.38;3.55;;;;;;;18.71;100.00;96438.56;5097118;28;20086;-46
2022/11/05 12:31:57;;;;;;;4.90;3.65;;;;;;;18.17;100.00;96446.34;5097883;28;20478;-47